Have a Safe July 4th! 

Flight Track Log - Related Links

Times and Time Zones

All times are in EDT time to prevent confusion due to time zone crossing. See the DAL759 flight status page for this flight to view local times or setup timezone preferences in your user account.

Time Position Orientation Groundspeed Altitude Reporting Facility
EDT Latitude Longitude Course Direction KTS MPH feet Rate Location/Type
Wed 10:47:44 PM 44.9167 -93.2667 282° West 198 228 2,300  Level Minneapolis TRACON
Wed 10:48:23 PM 44.9311 -93.3161 292° West 243 280 3,600 2,880 Climbing Minneapolis Center
Wed 10:49:24 PM 44.9722 -93.4111 301° West 282 325 7,100 3,344 Climbing Minneapolis Center
Wed 10:50:00 PM 44.9583 -93.8814 276° West  Level FlightAware Approximate
Wed 10:50:25 PM 45.0053 -93.5108 295° West 290 334 10,400  Level Minneapolis Center
Wed 10:51:00 PM 44.9749 -94.0491 283° West  Level FlightAware Approximate
Wed 10:51:27 PM 45.0147 -93.6250 277° West 294 338 13,400  Level Minneapolis Center
Wed 10:52:00 PM 44.9998 -94.2151 282° West  Level FlightAware Approximate
Wed 10:52:28 PM 45.0381 -93.7522 285° West 343 395 14,800  Level Minneapolis Center
Wed 10:53:29 PM 45.0872 -93.8769 299° West 362 417 17,500 2,488 Climbing Minneapolis Center
Wed 10:54:31 PM 45.1447 -94.0297 298° West 366 421 19,900 1,951 Climbing Minneapolis Center
Wed 10:55:32 PM 45.1808 -94.1747 290° West 389 448 21,500 1,268 Climbing Minneapolis Center
Wed 10:56:34 PM 45.2131 -94.3336 286° West 413 475 22,500 976 Climbing Minneapolis Center
Wed 10:57:35 PM 45.2475 -94.5075 286° West 454 522 23,500 1,426 Climbing Minneapolis Center
Wed 10:58:36 PM 45.2875 -94.6925 287° West 466 536 25,400 1,805 Climbing Minneapolis Center
Wed 10:59:38 PM 45.3214 -94.8667 286° West 462 532 27,200 1,610 Climbing Minneapolis Center
Wed 11:00:39 PM 45.3569 -95.0408 286° West 462 532 28,700 1,366 Climbing Minneapolis Center
Wed 11:01:41 PM 45.3900 -95.2122 285° West 456 525 30,000 634 Climbing Minneapolis Center
Wed 11:02:42 PM 45.4231 -95.3825 286° West 451 519 30,000  Level Minneapolis Center
Wed 11:03:44 PM 45.4625 -95.5867 285° West 449 517 30,000  Level Minneapolis Center
Wed 11:04:45 PM 45.4950 -95.7572 285° West 449 517 30,000  Level Minneapolis Center
Wed 11:05:46 PM 45.5281 -95.9283 285° West 449 517 30,000  Level Minneapolis Center
Wed 11:06:48 PM 45.5600 -96.0989 285° West 447 514 30,000  Level Minneapolis Center
Wed 11:07:49 PM 45.5914 -96.2717 285° West 451 519 30,000  Level Minneapolis Center
Wed 11:08:51 PM 45.6242 -96.4444 285° West 452 520 30,000  Level Minneapolis Center
Wed 11:09:52 PM 45.6561 -96.6169 285° West 451 519 30,000  Level Minneapolis Center
Wed 11:10:54 PM 45.6886 -96.7864 285° West 445 512 30,000  Level Minneapolis Center
Wed 11:11:55 PM 45.7267 -96.9969 285° West 457 526 30,000  Level Minneapolis Center
Wed 11:12:57 PM 45.7564 -97.1697 284° West 451 519 30,000  Level Minneapolis Center
Wed 11:13:58 PM 45.7875 -97.3431 284° West 450 518 30,000  Level Minneapolis Center
Wed 11:15:00 PM 45.8167 -97.5161 284° West 449 517 30,000  Level Minneapolis Center
Wed 11:16:13 PM 45.8461 -97.6892 284° West 448 516 30,000  Level Minneapolis Center
Wed 11:17:27 PM 45.8847 -97.9106 284° West 446 513 30,000  Level Minneapolis Center
Wed 11:18:28 PM 45.9161 -98.1019 283° West 449 517 30,000  Level Minneapolis Center
Wed 11:19:30 PM 45.9514 -98.3100 284° West 449 517 30,000  Level Minneapolis Center
Wed 11:20:31 PM 45.9803 -98.4817 284° West 446 513 30,000  Level Minneapolis Center
Wed 11:21:33 PM 46.0086 -98.6536 283° West 445 512 30,000  Level Minneapolis Center
Wed 11:22:34 PM 46.0367 -98.8239 283° West 442 509 30,000  Level Minneapolis Center
Wed 11:23:35 PM 46.0636 -98.9947 283° West 440 506 30,000 -49 Level Minneapolis Center
Wed 11:24:37 PM 46.0892 -99.1536 283° West 442 509 29,900  Descending Minneapolis Center
Wed 11:25:38 PM 46.1183 -99.3378 283° West 441 507 30,000 49 Climbing Minneapolis Center
Wed 11:26:39 PM 46.1450 -99.5086 283° West 441 507 30,000  Level Minneapolis Center
Wed 11:27:41 PM 46.1758 -99.7106 283° West 435 501 30,000  Level Minneapolis Center
Wed 11:28:42 PM 46.2022 -99.8789 283° West 433 498 30,000  Level Minneapolis Center
Wed 11:29:43 PM 46.2286 -100.0511 283° West 439 505 30,000  Level Minneapolis Center
Wed 11:30:44 PM 46.2539 -100.2233 282° West 440 506 30,000  Level Minneapolis Center
Wed 11:31:46 PM 46.2783 -100.3914 282° West 432 497 30,000  Level Minneapolis Center
Wed 11:32:47 PM 46.3031 -100.5592 282° West 430 495 30,000  Level Minneapolis Center
Wed 11:33:48 PM 46.3267 -100.7297 281° West 432 497 30,000  Level Minneapolis Center
Wed 11:34:49 PM 46.3514 -100.9006 282° West 435 501 30,000  Level Minneapolis Center
Wed 11:35:50 PM 46.3753 -101.0731 281° West 437 503 30,000  Level Minneapolis Center
Wed 11:36:52 PM 46.4039 -101.2778 282° West 435 501 30,000  Level Minneapolis Center
Wed 11:37:53 PM 46.4275 -101.4486 281° West 434 499 30,000  Level Minneapolis Center
Wed 11:38:54 PM 46.4500 -101.6194 281° West 432 497 30,000 -49 Level Minneapolis Center
Wed 11:39:55 PM 46.4708 -101.7625 282° West 431 496 29,900 -49 Descending Minneapolis Center
Wed 11:40:56 PM 46.4997 -101.9642 282° West 428 493 29,900  Level Minneapolis Center
Wed 11:41:57 PM 46.5225 -102.1342 281° West 429 494 29,900  Level Minneapolis Center
Wed 11:42:58 PM 46.5433 -102.3058 280° West 430 495 29,900  Level Minneapolis Center
Wed 11:43:59 PM 46.5661 -102.4739 281° West 427 491 29,900  Level Minneapolis Center
Wed 11:45:00 PM 46.5881 -102.6431 281° West 427 491 29,900 49 Level Minneapolis Center
Wed 11:46:01 PM 46.6081 -102.8147 280° West 430 495 30,000  Climbing Minneapolis Center
Wed 11:47:02 PM 46.6286 -102.9861 280° West 430 495 29,900  Descending Minneapolis Center
Wed 11:48:03 PM 46.6503 -103.1575 280° West 431 496 30,000  Climbing Minneapolis Center
Wed 11:49:06 PM 46.6692 -103.3292 279° West 430 495 29,900  Descending Salt Lake Center
Wed 11:50:08 PM 46.6908 -103.5000 281° West 430 495 30,000  Climbing Salt Lake Center
Wed 11:51:09 PM 46.7108 -103.6733 280° West 431 496 29,900 -49 Descending Salt Lake Center
Wed 11:52:10 PM 46.7342 -103.8817 279° West 432 497 29,900  Level Salt Lake Center
Wed 11:53:11 PM 46.7536 -104.0561 279° West 434 499 29,900  Level Salt Lake Center
Wed 11:54:12 PM 46.7719 -104.2242 279° West 427 491 29,900  Level Salt Lake Center
Wed 11:55:13 PM 46.7897 -104.3967 279° West 427 491 29,900 49 Level Salt Lake Center
Wed 11:56:15 PM 46.8081 -104.5683 279° West 429 494 30,000  Climbing Salt Lake Center
Wed 11:57:16 PM 46.8250 -104.7411 278° West 430 495 29,900 -49 Descending Salt Lake Center
Wed 11:58:17 PM 46.8436 -104.9153 279° West 432 497 29,900  Level Salt Lake Center
Wed 11:59:19 PM 46.8625 -105.0892 279° West 433 498 29,900 49 Level Salt Lake Center
Thu 12:00:20 AM 46.8806 -105.2633 279° West 433 498 30,000  Climbing Salt Lake Center
Thu 12:01:21 AM 46.8986 -105.4389 279° West 436 502 29,900 -49 Descending Salt Lake Center
Thu 12:02:22 AM 46.9150 -105.6125 278° West 434 499 29,900  Level Salt Lake Center
Thu 12:03:23 AM 46.9333 -105.7892 279° West 437 503 29,900  Level Salt Lake Center
Thu 12:04:24 AM 46.9533 -105.9983 278° West 434 499 29,900  Level Salt Lake Center
Thu 12:05:26 AM 46.9714 -106.1744 279° West 436 502 29,900 49 Level Salt Lake Center
Thu 12:06:27 AM 46.9894 -106.3533 278° West 434 499 30,000 49 Climbing Salt Lake Center
Thu 12:07:28 AM 47.0047 -106.5194 278° West 433 498 30,000  Level Salt Lake Center
Thu 12:08:29 AM 47.0214 -106.7114 277° West 427 491 30,000  Level Salt Lake Center
Thu 12:09:30 AM 47.0361 -106.8783 277° West 430 495 30,000  Level Salt Lake Center
Thu 12:10:32 AM 47.0506 -107.0447 277° West 431 496 30,000  Level Salt Lake Center
Thu 12:11:33 AM 47.0664 -107.2386 277° West 429 494 30,000  Level Salt Lake Center
Thu 12:12:34 AM 47.0806 -107.4075 277° West 433 498 30,000  Level Salt Lake Center
Thu 12:13:35 AM 47.0967 -107.6022 277° West 432 497 30,000  Level Salt Lake Center
Thu 12:14:36 AM 47.1100 -107.7697 277° West 433 498 30,000  Level Salt Lake Center
Thu 12:15:37 AM 47.1239 -107.9378 277° West 432 497 30,000  Level Salt Lake Center
Thu 12:16:39 AM 47.1372 -108.1347 276° West 435 501 30,000  Level Salt Lake Center
Thu 12:17:40 AM 47.1511 -108.3031 277° West 435 501 30,000  Level Salt Lake Center
Thu 12:18:41 AM 47.1625 -108.4736 276° West 438 504 30,000  Level Salt Lake Center
Thu 12:19:42 AM 47.1761 -108.6683 276° West 432 497 30,000  Level Salt Lake Center
Thu 12:20:43 AM 47.1883 -108.8350 276° West 430 495 30,000  Level Salt Lake Center
Thu 12:21:45 AM 47.2008 -109.0328 275° West 435 501 30,000 -49 Level Salt Lake Center
Thu 12:22:46 AM 47.2125 -109.1783 277° West 430 495 29,900 -49 Descending Salt Lake Center
Thu 12:23:47 AM 47.2244 -109.3550 276° West 433 498 29,900  Level Salt Lake Center
Thu 12:24:48 AM 47.2375 -109.5678 275° West 435 501 29,900  Level Salt Lake Center
Thu 12:25:49 AM 47.2486 -109.7447 275° West 437 503 29,900  Level Salt Lake Center
Thu 12:26:50 AM 47.2592 -109.9239 275° West 438 504 29,900  Level Salt Lake Center
Thu 12:27:52 AM 47.2683 -110.1028 274° West 439 505 29,900 49 Level Salt Lake Center
Thu 12:28:53 AM 47.2783 -110.2828 275° West 440 506 30,000  Climbing Salt Lake Center
Thu 12:29:54 AM 47.2892 -110.4614 275° West 439 505 29,900  Descending Salt Lake Center
Thu 12:30:55 AM 47.2983 -110.6406 274° West 439 505 30,000  Climbing Salt Lake Center
Thu 12:31:56 AM 47.3081 -110.8214 275° West 440 506 29,900  Descending Salt Lake Center
Thu 12:32:57 AM 47.3167 -111.0019 274° West 440 506 30,000  Climbing Salt Lake Center
Thu 12:33:58 AM 47.3256 -111.1844 274° West 443 510 29,900  Descending Salt Lake Center
Thu 12:34:59 AM 47.3342 -111.3672 274° West 443 510 30,000  Climbing Salt Lake Center
Thu 12:36:00 AM 47.3425 -111.5481 274° West 440 506 29,900 -49 Descending Salt Lake Center
Thu 12:37:02 AM 47.3506 -111.7289 274° West 439 505 29,900 49 Level Salt Lake Center
Thu 12:38:03 AM 47.3581 -111.9100 274° West 440 506 30,000  Climbing Salt Lake Center
Thu 12:39:04 AM 47.3656 -112.0892 274° West 439 505 29,900  Descending Salt Lake Center
Thu 12:40:05 AM 47.3739 -112.3056 273° West 440 506 30,000 49 Climbing Salt Lake Center
Thu 12:41:06 AM 47.3806 -112.4872 273° West 443 510 30,000 -49 Level Salt Lake Center
Thu 12:42:07 AM 47.3875 -112.6669 273° West 440 506 29,900 -49 Descending Salt Lake Center
Thu 12:43:08 AM 47.3944 -112.8464 273° West 440 506 29,900  Level Salt Lake Center
Thu 12:44:09 AM 47.4003 -113.0267 273° West 439 505 29,900 49 Level Salt Lake Center
Thu 12:45:10 AM 47.4058 -113.2069 273° West 440 506 30,000  Climbing Salt Lake Center
Thu 12:46:11 AM 47.4111 -113.3897 273° West 444 511 29,900  Descending Salt Lake Center
Thu 12:47:12 AM 47.4169 -113.5711 273° West 443 510 30,000  Climbing Salt Lake Center
Thu 12:48:13 AM 47.4219 -113.7553 272° West 447 514 29,900 -49 Descending Salt Lake Center
Thu 12:49:14 AM 47.4267 -113.9403 272° West 449 517 29,900 49 Level Salt Lake Center
Thu 12:50:15 AM 47.4317 -114.1222 272° West 444 511 30,000  Climbing Salt Lake Center
Thu 12:51:16 AM 47.4419 -114.3075 275° West 449 517 29,900  Descending Salt Lake Center
Thu 12:52:17 AM 47.4544 -114.4922 276° West 451 519 30,000 50 Climbing Salt Lake Center
Thu 12:53:17 AM 47.4653 -114.6769 275° West 450 518 30,000 -46 Level Salt Lake Center
Thu 12:54:27 AM 47.4806 -114.8986 276° West 451 519 29,900 -46 Descending Seattle Center
Thu 12:55:27 AM 47.4925 -115.0814 276° West 449 517 29,900 50 Level Seattle Center
Thu 12:56:28 AM 47.5025 -115.2617 275° West 443 510 30,000 49 Climbing Seattle Center
Thu 12:57:29 AM 47.5117 -115.4425 274° West 441 507 30,000 -446 Level Seattle Center
Thu 12:58:29 AM 47.5217 -115.6272 275° West 448 516 29,100 -1,835 Descending Seattle Center
Thu 12:59:30 AM 47.5303 -115.8078 274° West 449 517 26,300 -3,098 Descending Seattle Center
Thu 01:00:31 AM 47.5403 -115.9892 275° West 446 513 22,800 -3,344 Descending Seattle Center
Thu 01:01:32 AM 47.5494 -116.1683 274° West 440 506 19,500 -3,421 Descending Seattle Center
Thu 01:02:32 AM 47.5611 -116.3739 275° West 418 481 15,900 -2,975 Descending Seattle Center
Thu 01:03:33 AM 47.5767 -116.5369 278° West 400 460 13,500 -2,262 Descending Seattle Center
Thu 01:04:34 AM 47.6125 -116.6842 290° West 384 442 11,300 -1,686 Descending Seattle Center
Thu 01:05:34 AM 47.6447 -116.8228 289° West 359 413 10,100 -793 Descending Seattle Center
Thu 01:06:35 AM 47.6750 -116.9444 290° West 303 349 9,700 -787 Descending Seattle Center
Thu 01:07:36 AM 47.7003 -117.0581 288° West 293 337 8,500 -1,339 Descending Seattle Center
Thu 01:08:36 AM 47.7250 -117.1644 289° West 280 322 7,000 -1,736 Descending Seattle Center
Thu 01:09:37 AM 47.7400 -117.2786 281° West 268 308 5,000 -1,180 Descending Seattle Center
Thu 01:10:38 AM 47.7367 -117.3603 267° West 246 283 4,600 -446 Descending Seattle Center
Thu 01:11:38 AM 47.7000 -117.4156 225° Southwest 190 219 4,100 -645 Descending Seattle Center
Thu 01:12:39 AM 47.6647 -117.4689 226° Southwest 152 175 3,300 -787 Descending Seattle Center
Thu 01:13:40 AM 47.6369 -117.5097 225° Southwest 142 163 2,500 -496 Descending Seattle Center
Thu 01:14:40 AM 47.6186 -117.5381 226° Southwest 105 121 2,300 -200 Descending Seattle Center

Login

Don't have an account? Register now (free) for customized features, flight alerts, and more!